Port Dickinson, New York
Current Conditions -  °F | °C
As of 11:53 AM on Tuesday 27 Jan 2015 (Local Time) from KBGM Reporting Station
Few Clouds Few Clouds  
Wind Chill: -1°   Ceiling: Unl
Heat Index: 13°   Visibility: 10mi
Dew Point:   Wind: 12mph
Humidity: 67%   Direction: 320°NW
Pressure: 29.75"   Gusts: NA
Location:  42.1934°N, 75.8849°W
Report Text: KBGM 271653Z 32010KT 10SM FEW120 M11/M16 A2975 RMK AO2 SLP102 T11061156
Loading
Personal Weather Stations






























Interactive Weather Map New forecast layout! Learn more

10-Day Weather Forecast

Advertisements
Track Severe Weather on mobile